createdAt,value
2022-11-26T00:02:29.841Z,16.42
2022-11-26T00:05:00.605Z,18.00
2022-11-26T00:07:31.856Z,17.43
2022-11-26T00:10:02.325Z,17.47
2022-11-26T00:12:36.471Z,15.90
2022-11-26T00:15:18.413Z,17.57
2022-11-26T00:17:49.492Z,16.87
2022-11-26T00:20:21.170Z,16.90
2022-11-26T00:22:53.664Z,15.27
2022-11-26T00:25:29.140Z,15.80
2022-11-26T00:27:59.915Z,16.67
2022-11-26T00:32:59.592Z,15.75
2022-11-26T00:35:29.417Z,14.83
2022-11-26T00:38:00.023Z,15.78
2022-11-26T00:40:34.557Z,15.90
2022-11-26T00:43:04.429Z,14.97
2022-11-26T00:45:34.329Z,14.63
2022-11-26T00:48:04.705Z,12.98
2022-11-26T00:50:40.042Z,13.40
2022-11-26T00:53:16.004Z,14.67
2022-11-26T00:55:48.650Z,15.60
2022-11-26T00:58:30.341Z,15.50
2022-11-26T01:01:01.454Z,13.77
2022-11-26T01:03:31.266Z,15.80
2022-11-26T01:06:04.264Z,16.07
2022-11-26T01:08:37.824Z,16.43
2022-11-26T01:11:07.724Z,15.63
2022-11-26T01:13:37.831Z,14.90
2022-11-26T01:16:22.697Z,14.73
2022-11-26T01:18:55.393Z,14.63
2022-11-26T01:21:27.267Z,14.63
2022-11-26T01:23:58.321Z,14.80
2022-11-26T01:26:31.191Z,16.23
2022-11-26T01:29:01.387Z,14.10
2022-11-26T01:31:32.332Z,14.30
2022-11-26T01:34:02.127Z,15.75
2022-11-26T01:36:34.783Z,17.40
2022-11-26T01:39:08.006Z,19.10
2022-11-26T01:42:07.796Z,19.40
2022-11-26T01:44:38.710Z,17.90
2022-11-26T01:50:04.538Z,18.50
2022-11-26T01:52:34.658Z,17.55
2022-11-26T01:55:04.952Z,16.00
2022-11-26T01:57:36.564Z,21.57
2022-11-26T02:00:09.605Z,25.30
2022-11-26T02:02:42.173Z,30.77
2022-11-26T02:05:24.430Z,29.70
2022-11-26T02:07:55.176Z,27.73
2022-11-26T02:10:24.947Z,28.75
2022-11-26T02:12:55.119Z,28.40
2022-11-26T02:15:27.821Z,33.03
2022-11-26T02:18:00.713Z,27.83
2022-11-26T02:20:51.641Z,28.13
2022-11-26T02:23:33.231Z,26.70
2022-11-26T02:26:23.852Z,29.17
2022-11-26T02:29:17.742Z,27.63
2022-11-26T02:31:53.785Z,25.43
2022-11-26T02:34:51.903Z,23.90
2022-11-26T02:37:30.472Z,26.23
2022-11-26T02:40:00.593Z,22.73
2022-11-26T02:42:33.413Z,23.77
2022-11-26T02:45:15.187Z,23.70
2022-11-26T02:47:47.545Z,23.80
2022-11-26T02:50:29.340Z,24.02
2022-11-26T02:55:32.121Z,21.20
2022-11-26T02:58:02.390Z,24.73
2022-11-26T03:00:35.138Z,20.57
2022-11-26T03:03:19.745Z,22.45
2022-11-26T03:05:53.547Z,21.50
2022-11-26T03:08:23.908Z,20.23
2022-11-26T03:10:54.172Z,19.27
2022-11-26T03:13:23.764Z,21.37
2022-11-26T03:15:53.672Z,22.10
2022-11-26T03:18:23.208Z,19.83
2022-11-26T03:20:53.054Z,20.80
2022-11-26T03:23:22.645Z,21.10
2022-11-26T03:25:52.438Z,18.87
2022-11-26T03:28:22.210Z,18.60
2022-11-26T03:30:52.772Z,19.43
2022-11-26T03:33:24.818Z,19.55
2022-11-26T03:35:54.848Z,20.17
2022-11-26T03:38:24.649Z,18.52
2022-11-26T03:41:00.224Z,19.75
2022-11-26T03:43:31.389Z,18.67
2022-11-26T03:46:02.398Z,20.57
2022-11-26T03:48:32.303Z,18.73
2022-11-26T03:51:02.258Z,18.83
2022-11-26T03:53:32.085Z,16.13
2022-11-26T03:56:01.888Z,17.43
2022-11-26T03:58:31.775Z,17.47
2022-11-26T04:01:02.143Z,16.37
2022-11-26T04:03:32.169Z,16.37
2022-11-26T04:06:02.006Z,15.83
2022-11-26T04:08:31.936Z,14.90
2022-11-26T04:11:01.994Z,14.57
2022-11-26T04:13:31.807Z,13.20
2022-11-26T04:16:01.803Z,10.53
2022-11-26T04:18:31.412Z,11.17
2022-11-26T04:21:01.819Z,10.03
2022-11-26T04:23:31.335Z,11.33
2022-11-26T04:26:01.412Z,10.23
2022-11-26T04:28:31.237Z,9.23
2022-11-26T04:31:01.772Z,9.65
2022-11-26T04:33:31.598Z,8.87
2022-11-26T04:36:01.498Z,9.37
2022-11-26T04:38:31.656Z,8.40
2022-11-26T04:41:01.532Z,8.60
2022-11-26T04:43:31.346Z,8.17
2022-11-26T04:46:01.275Z,7.90
2022-11-26T04:48:31.091Z,8.90
2022-11-26T04:51:01.258Z,8.00
2022-11-26T04:53:31.123Z,8.73
2022-11-26T04:56:00.953Z,7.57
2022-11-26T04:58:30.845Z,8.20
2022-11-26T05:01:00.755Z,8.47
2022-11-26T05:03:30.673Z,7.13
2022-11-26T05:06:00.555Z,8.20
2022-11-26T05:08:30.463Z,8.37
2022-11-26T05:11:01.523Z,6.93
2022-11-26T05:13:31.319Z,7.85
2022-11-26T05:16:01.253Z,6.83
2022-11-26T05:18:31.346Z,7.00
2022-11-26T05:21:01.193Z,8.00
2022-11-26T05:23:30.980Z,7.57
2022-11-26T05:26:00.782Z,7.37
2022-11-26T05:28:30.670Z,7.90
2022-11-26T05:31:02.202Z,7.77
2022-11-26T05:33:32.378Z,7.03
2022-11-26T05:36:02.343Z,7.80
2022-11-26T05:38:32.204Z,7.20
2022-11-26T05:41:02.341Z,7.35
2022-11-26T05:43:32.140Z,8.33
2022-11-26T05:46:09.352Z,7.30
2022-11-26T05:48:39.096Z,7.45
2022-11-26T05:51:08.967Z,7.40
2022-11-26T05:53:38.937Z,6.93
2022-11-26T05:56:09.177Z,7.17
2022-11-26T05:58:39.034Z,6.37
2022-11-26T06:01:10.422Z,7.37
2022-11-26T06:03:40.059Z,7.40
2022-11-26T06:06:10.123Z,7.27
2022-11-26T06:08:39.931Z,6.63
2022-11-26T06:11:13.409Z,6.43
2022-11-26T06:13:43.413Z,6.70
2022-11-26T06:16:13.026Z,7.20
2022-11-26T06:18:42.930Z,6.70
2022-11-26T06:21:12.985Z,5.97
2022-11-26T06:23:51.663Z,6.93
2022-11-26T06:26:14.555Z,6.83
2022-11-26T06:28:44.624Z,6.20
2022-11-26T06:31:14.596Z,6.15
2022-11-26T06:33:44.255Z,5.97
2022-11-26T06:36:14.058Z,6.60
2022-11-26T06:38:43.853Z,6.93
2022-11-26T06:41:13.578Z,5.60
2022-11-26T06:43:43.432Z,5.50
2022-11-26T06:46:13.889Z,6.30
2022-11-26T06:48:43.499Z,5.73
2022-11-26T06:51:15.609Z,5.77
2022-11-26T06:53:45.575Z,6.40
2022-11-26T06:56:19.084Z,5.67
2022-11-26T06:58:51.369Z,5.35
2022-11-26T07:01:25.126Z,4.97
2022-11-26T07:03:55.803Z,5.60
2022-11-26T07:06:30.963Z,5.67
2022-11-26T07:09:06.426Z,6.17
2022-11-26T07:11:37.266Z,5.43
2022-11-26T07:14:08.506Z,4.95
2022-11-26T07:16:38.583Z,4.83
2022-11-26T07:19:08.149Z,5.07
2022-11-26T07:21:38.824Z,4.10
2022-11-26T07:24:08.521Z,4.40
2022-11-26T07:26:38.411Z,5.07
2022-11-26T07:29:08.284Z,3.83
2022-11-26T07:31:40.109Z,4.13
2022-11-26T07:34:09.671Z,4.70
2022-11-26T07:36:42.071Z,4.80
2022-11-26T07:39:12.535Z,4.77
2022-11-26T07:41:42.283Z,4.37
2022-11-26T07:44:16.398Z,4.20
2022-11-26T07:46:46.408Z,3.60
2022-11-26T07:49:16.294Z,3.40
2022-11-26T07:51:46.086Z,4.07
2022-11-26T07:54:15.617Z,4.67
2022-11-26T07:56:45.521Z,4.40
2022-11-26T07:59:15.035Z,3.57
2022-11-26T08:01:45.027Z,4.07
2022-11-26T08:04:14.600Z,2.93
2022-11-26T08:06:44.421Z,2.83
2022-11-26T08:09:14.225Z,3.40
2022-11-26T08:11:44.024Z,4.37
2022-11-26T08:14:14.801Z,3.83
2022-11-26T08:16:44.736Z,3.15
2022-11-26T08:19:15.041Z,3.27
2022-11-26T08:21:44.706Z,3.23
2022-11-26T08:24:17.328Z,3.35
2022-11-26T08:26:47.769Z,3.92
2022-11-26T08:29:17.530Z,3.80
2022-11-26T08:31:48.778Z,4.00
2022-11-26T08:34:19.037Z,2.90
2022-11-26T08:36:49.818Z,2.97
2022-11-26T08:39:20.003Z,2.80
2022-11-26T08:41:52.556Z,2.90
2022-11-26T08:44:21.786Z,3.12
2022-11-26T08:46:51.998Z,3.30
2022-11-26T08:49:22.900Z,3.37
2022-11-26T08:51:52.698Z,3.65
2022-11-26T08:54:22.266Z,3.77
2022-11-26T08:56:52.399Z,3.07
2022-11-26T08:59:23.685Z,3.53
2022-11-26T09:01:53.925Z,3.13
2022-11-26T09:04:24.784Z,4.33
2022-11-26T09:06:55.693Z,3.52
2022-11-26T09:09:25.371Z,2.67
2022-11-26T09:12:00.722Z,2.33
2022-11-26T09:14:33.153Z,3.30
2022-11-26T09:17:03.222Z,3.07
2022-11-26T09:19:33.185Z,2.07
2022-11-26T09:22:03.326Z,3.47
2022-11-26T09:24:33.589Z,2.72
2022-11-26T09:27:07.774Z,2.70
2022-11-26T09:29:34.935Z,2.57
2022-11-26T09:32:24.055Z,1.93
2022-11-26T09:34:38.089Z,1.93
2022-11-26T09:37:08.259Z,2.17
2022-11-26T09:39:39.977Z,1.77
2022-11-26T09:42:24.484Z,2.17
2022-11-26T09:45:03.245Z,3.17
2022-11-26T09:47:37.162Z,1.00
2022-11-26T09:50:15.921Z,2.40
2022-11-26T09:52:57.853Z,1.47
2022-11-26T09:55:38.751Z,1.77
2022-11-26T09:58:35.635Z,1.00
2022-11-26T10:01:08.157Z,1.17
2022-11-26T10:03:38.725Z,1.40
2022-11-26T10:06:26.018Z,1.30
2022-11-26T10:09:07.733Z,1.70
2022-11-26T10:11:54.543Z,1.33
2022-11-26T10:14:43.503Z,1.13
2022-11-26T10:17:31.304Z,1.37
2022-11-26T10:20:33.031Z,1.50
2022-11-26T10:23:29.910Z,1.87
2022-11-26T10:26:26.771Z,1.63
2022-11-26T10:29:25.506Z,1.17
2022-11-26T10:32:01.064Z,1.30
2022-11-26T10:34:48.681Z,1.80
2022-11-26T10:37:19.731Z,1.37
2022-11-26T10:40:07.337Z,2.10
2022-11-26T10:42:42.788Z,1.52
2022-11-26T10:45:21.660Z,1.82
2022-11-26T10:47:54.574Z,1.87
2022-11-26T10:53:02.151Z,2.47
2022-11-26T10:55:37.461Z,2.80
2022-11-26T10:58:10.332Z,2.43
2022-11-26T11:00:45.959Z,3.00
2022-11-26T11:03:33.172Z,3.67
2022-11-26T11:05:55.010Z,3.45
2022-11-26T11:08:34.763Z,3.97
2022-11-26T11:11:05.916Z,4.10
2022-11-26T11:13:45.322Z,3.90
2022-11-26T11:16:17.781Z,4.13
2022-11-26T11:18:54.344Z,3.77
2022-11-26T11:21:26.621Z,4.40
2022-11-26T11:24:11.548Z,4.07
2022-11-26T11:26:47.440Z,3.87
2022-11-26T11:29:38.760Z,4.10
2022-11-26T11:32:11.572Z,3.42
2022-11-26T11:34:45.140Z,5.47
2022-11-26T11:37:22.092Z,4.53
2022-11-26T11:39:58.648Z,6.23
2022-11-26T11:42:29.433Z,5.43
2022-11-26T11:45:03.990Z,5.00
2022-11-26T11:47:51.006Z,5.17
2022-11-26T11:50:26.520Z,5.37
2022-11-26T11:53:31.262Z,6.37
2022-11-26T11:56:13.074Z,6.13
2022-11-26T11:59:07.262Z,5.63
2022-11-26T12:02:04.701Z,5.67
2022-11-26T12:04:49.378Z,6.27
2022-11-26T12:07:22.076Z,7.40
2022-11-26T12:10:03.962Z,6.40
2022-11-26T12:12:38.756Z,8.37
2022-11-26T12:15:29.869Z,9.40
2022-11-26T12:18:20.361Z,7.35
2022-11-26T12:21:06.770Z,9.70
2022-11-26T12:23:57.473Z,8.80
2022-11-26T12:26:36.048Z,8.60
2022-11-26T12:29:09.610Z,8.73
2022-11-26T12:31:54.779Z,8.37
2022-11-26T12:34:39.720Z,8.25
2022-11-26T12:37:27.622Z,8.07
2022-11-26T12:40:04.264Z,8.37
2022-11-26T12:43:03.390Z,8.45
2022-11-26T12:45:45.333Z,7.83
2022-11-26T12:48:23.885Z,7.47
2022-11-26T12:50:56.766Z,9.50
2022-11-26T12:53:41.669Z,8.67
2022-11-26T12:56:26.198Z,7.13
2022-11-26T12:59:01.720Z,8.20
2022-11-26T13:01:33.848Z,7.40
2022-11-26T13:04:36.235Z,8.88
2022-11-26T13:06:55.281Z,7.72
2022-11-26T13:09:45.246Z,7.55
2022-11-26T13:12:46.703Z,6.03
2022-11-26T13:15:19.460Z,6.90
2022-11-26T13:17:51.424Z,7.20
2022-11-26T13:20:45.017Z,7.30
2022-11-26T13:23:23.960Z,10.47
2022-11-26T13:26:08.744Z,9.67
2022-11-26T13:28:54.321Z,8.20
2022-11-26T13:31:42.161Z,11.15
2022-11-26T13:34:37.319Z,9.40
2022-11-26T13:37:25.195Z,7.87
2022-11-26T13:40:19.021Z,9.33
2022-11-26T13:43:17.094Z,7.10
2022-11-26T13:46:09.585Z,8.80
2022-11-26T13:48:54.298Z,11.53
2022-11-26T13:51:45.928Z,10.55
2022-11-26T13:57:01.176Z,11.88
2022-11-26T13:59:36.758Z,12.67
2022-11-26T14:02:36.613Z,12.80
2022-11-26T14:05:11.073Z,9.80
2022-11-26T14:07:41.452Z,11.27
2022-11-26T14:10:28.914Z,8.17
2022-11-26T14:13:10.013Z,13.18
2022-11-26T14:15:45.886Z,7.93
2022-11-26T14:18:18.605Z,9.13
2022-11-26T14:21:04.066Z,8.10
2022-11-26T14:23:49.217Z,9.37
2022-11-26T14:26:21.761Z,10.37
2022-11-26T14:28:54.378Z,9.90
2022-11-26T14:31:33.105Z,8.63
2022-11-26T14:34:21.973Z,8.60
2022-11-26T14:37:00.668Z,9.67
2022-11-26T14:39:31.999Z,13.27
2022-11-26T14:42:06.421Z,11.10
2022-11-26T14:44:37.990Z,14.37
2022-11-26T14:47:21.892Z,15.67
2022-11-26T14:49:58.720Z,11.27
2022-11-26T14:52:33.332Z,11.63
2022-11-26T14:55:10.027Z,9.80
2022-11-26T14:57:49.128Z,8.47
2022-11-26T15:00:27.033Z,10.53
2022-11-26T15:02:57.509Z,11.73
2022-11-26T15:05:30.097Z,9.60
2022-11-26T15:08:09.763Z,8.20
2022-11-26T15:10:43.520Z,6.90
2022-11-26T15:13:17.384Z,7.63
2022-11-26T15:15:56.423Z,6.28
2022-11-26T15:18:35.274Z,7.87
2022-11-26T15:21:06.991Z,6.75
2022-11-26T15:23:40.127Z,6.47
2022-11-26T15:26:12.698Z,5.93
2022-11-26T15:28:43.458Z,6.60
2022-11-26T15:31:15.522Z,6.45
2022-11-26T15:33:47.119Z,5.62
2022-11-26T15:36:17.920Z,9.37
2022-11-26T15:39:08.403Z,14.27
2022-11-26T15:41:42.804Z,10.43
2022-11-26T15:44:21.618Z,13.50
2022-11-26T15:46:54.174Z,12.00
2022-11-26T15:49:26.836Z,10.07
2022-11-26T15:52:03.877Z,10.87
2022-11-26T15:55:10.888Z,12.00
2022-11-26T15:57:22.906Z,11.03
2022-11-26T16:00:00.603Z,8.50
2022-11-26T16:02:33.078Z,8.23
2022-11-26T16:05:04.867Z,9.88
2022-11-26T16:07:35.017Z,8.97
2022-11-26T16:10:22.516Z,8.13
2022-11-26T16:13:19.557Z,8.70
2022-11-26T16:16:11.038Z,7.87
2022-11-26T16:18:46.801Z,7.93
2022-11-26T16:21:26.953Z,8.80
2022-11-26T16:24:23.543Z,9.20
2022-11-26T16:26:57.642Z,8.73
2022-11-26T16:29:28.522Z,8.50
2022-11-26T16:31:58.572Z,7.53
2022-11-26T16:34:30.459Z,7.23
2022-11-26T16:37:18.029Z,7.67
2022-11-26T16:39:48.418Z,7.13
2022-11-26T16:42:23.648Z,7.40
2022-11-26T16:44:53.969Z,7.20
2022-11-26T16:47:35.487Z,8.13
2022-11-26T16:50:11.946Z,7.83
2022-11-26T16:52:40.733Z,13.57
2022-11-26T16:55:16.834Z,12.13
2022-11-26T16:57:51.111Z,11.73
2022-11-26T17:00:26.189Z,11.97
2022-11-26T17:02:56.212Z,16.00
2022-11-26T17:05:27.777Z,15.37
2022-11-26T17:08:02.426Z,16.47
2022-11-26T17:10:32.321Z,13.80
2022-11-26T17:13:03.077Z,12.10
2022-11-26T17:15:32.958Z,12.55
2022-11-26T17:18:07.006Z,10.97
2022-11-26T17:20:36.845Z,9.53
2022-11-26T17:23:09.077Z,9.47
2022-11-26T17:25:38.879Z,7.03
2022-11-26T17:28:15.895Z,7.23
2022-11-26T17:30:46.412Z,7.60
2022-11-26T17:33:17.004Z,8.23
2022-11-26T17:35:47.643Z,9.50
2022-11-26T17:38:20.486Z,11.87
2022-11-26T17:40:50.351Z,15.03
2022-11-26T17:43:19.897Z,16.73
2022-11-26T17:45:49.783Z,15.00
2022-11-26T17:48:24.247Z,16.43
2022-11-26T17:50:51.825Z,16.50
2022-11-26T17:53:21.696Z,15.33
2022-11-26T17:55:51.573Z,16.40
2022-11-26T17:58:22.254Z,16.37
2022-11-26T18:00:55.247Z,16.37
2022-11-26T18:03:24.827Z,15.60
2022-11-26T18:05:54.673Z,17.93
2022-11-26T18:08:24.358Z,16.50
2022-11-26T18:10:54.145Z,17.83
2022-11-26T18:13:23.960Z,18.50
2022-11-26T18:15:59.409Z,21.37
2022-11-26T18:18:29.704Z,22.15
2022-11-26T18:20:59.546Z,20.97
2022-11-26T18:23:30.314Z,19.93
2022-11-26T18:26:00.133Z,21.27
2022-11-26T18:28:30.443Z,21.05
2022-11-26T18:31:00.375Z,23.30
2022-11-26T18:33:33.725Z,20.13
2022-11-26T18:36:03.588Z,19.00
2022-11-26T18:38:36.900Z,20.37
2022-11-26T18:41:09.227Z,21.50
2022-11-26T18:43:44.204Z,20.53
2022-11-26T18:46:17.088Z,21.20
2022-11-26T18:48:51.187Z,21.12
2022-11-26T18:51:21.026Z,22.50
2022-11-26T18:53:51.232Z,21.20
2022-11-26T18:56:25.921Z,20.27
2022-11-26T18:58:56.440Z,21.07
2022-11-26T19:01:29.973Z,21.87
2022-11-26T19:04:04.530Z,20.67
2022-11-26T19:06:36.945Z,19.40
2022-11-26T19:09:10.439Z,22.13
2022-11-26T19:11:42.312Z,20.10
2022-11-26T19:14:14.250Z,20.05
2022-11-26T19:16:44.969Z,24.40
2022-11-26T19:19:16.451Z,20.88
2022-11-26T19:21:59.331Z,21.03
2022-11-26T19:24:25.402Z,22.83
2022-11-26T19:26:55.272Z,21.43
2022-11-26T19:29:24.937Z,23.33
2022-11-26T19:31:54.789Z,25.03
2022-11-26T19:34:24.575Z,20.87
2022-11-26T19:36:57.842Z,22.07
2022-11-26T19:39:27.811Z,24.13
2022-11-26T19:41:57.776Z,22.00
2022-11-26T19:44:27.676Z,20.93
2022-11-26T19:46:57.539Z,21.50
2022-11-26T19:49:28.134Z,22.67
2022-11-26T19:51:58.137Z,20.63
2022-11-26T19:54:28.314Z,23.47
2022-11-26T19:56:58.442Z,22.53
2022-11-26T19:59:28.242Z,25.00
2022-11-26T20:01:58.246Z,21.97
2022-11-26T20:04:29.696Z,22.10
2022-11-26T20:06:59.555Z,22.40
2022-11-26T20:09:29.398Z,22.23
2022-11-26T20:11:59.498Z,23.13
2022-11-26T20:14:30.585Z,25.63
2022-11-26T20:19:32.245Z,22.50
2022-11-26T20:22:02.135Z,26.12
2022-11-26T20:24:32.039Z,24.33
2022-11-26T20:27:07.174Z,26.70
2022-11-26T20:29:37.295Z,24.73
2022-11-26T20:32:07.178Z,24.53
2022-11-26T20:34:37.025Z,21.63
2022-11-26T20:37:06.848Z,23.93
2022-11-26T20:39:36.951Z,22.80
2022-11-26T20:42:07.743Z,26.33
2022-11-26T20:44:37.599Z,22.65
2022-11-26T20:47:07.233Z,24.43
2022-11-26T20:49:42.696Z,23.20
2022-11-26T20:52:10.382Z,24.70
2022-11-26T20:54:41.165Z,24.60
2022-11-26T20:57:10.703Z,25.72
2022-11-26T20:59:40.763Z,26.37
2022-11-26T21:02:12.373Z,23.47
2022-11-26T21:07:11.193Z,22.87
2022-11-26T21:09:41.237Z,22.83
2022-11-26T21:12:11.299Z,25.37
2022-11-26T21:14:41.219Z,25.05
2022-11-26T21:17:11.267Z,23.50
2022-11-26T21:19:41.468Z,24.27
2022-11-26T21:22:11.631Z,22.90
2022-11-26T21:24:41.485Z,23.67
2022-11-26T21:27:14.078Z,24.77
2022-11-26T21:29:45.556Z,23.03
2022-11-26T21:32:15.446Z,22.10
2022-11-26T21:34:45.268Z,22.90
2022-11-26T21:37:14.812Z,24.13
2022-11-26T21:39:44.639Z,22.80
2022-11-26T21:42:15.474Z,23.23
2022-11-26T21:44:45.441Z,22.37
2022-11-26T21:47:20.825Z,22.73
2022-11-26T21:49:50.773Z,24.87
2022-11-26T21:52:20.560Z,20.77
2022-11-26T21:54:59.606Z,23.10
2022-11-26T21:57:29.562Z,23.22
2022-11-26T21:59:59.471Z,22.90
2022-11-26T22:02:29.260Z,25.90
2022-11-26T22:05:00.130Z,24.37
2022-11-26T22:07:31.482Z,21.93
2022-11-26T22:10:01.619Z,27.90
2022-11-26T22:12:32.512Z,28.00
2022-11-26T22:15:03.321Z,28.92
2022-11-26T22:17:33.153Z,23.02
2022-11-26T22:20:03.790Z,22.77
2022-11-26T22:22:33.327Z,24.10
2022-11-26T22:25:03.182Z,25.47
2022-11-26T22:27:33.938Z,23.73
2022-11-26T22:30:03.906Z,21.68
2022-11-26T22:32:33.819Z,21.00
2022-11-26T22:35:03.705Z,20.50
2022-11-26T22:37:33.812Z,20.63
2022-11-26T22:40:04.112Z,18.92
2022-11-26T22:42:34.861Z,22.10
2022-11-26T22:45:04.449Z,21.40
2022-11-26T22:47:34.296Z,17.30
2022-11-26T22:50:05.313Z,19.20
2022-11-26T22:52:35.061Z,16.90
2022-11-26T22:55:05.027Z,16.90
2022-11-26T22:57:37.714Z,17.17
2022-11-26T23:00:13.087Z,17.60
2022-11-26T23:02:43.090Z,17.23
2022-11-26T23:05:12.958Z,16.85
2022-11-26T23:07:42.952Z,16.33
2022-11-26T23:10:12.975Z,16.43
2022-11-26T23:12:48.509Z,16.00
2022-11-26T23:15:18.324Z,17.13
2022-11-26T23:17:48.138Z,17.63
2022-11-26T23:20:17.720Z,17.23
2022-11-26T23:22:47.556Z,16.37
2022-11-26T23:25:19.160Z,19.00
2022-11-26T23:27:54.716Z,18.80
2022-11-26T23:30:25.325Z,17.55
2022-11-26T23:32:55.137Z,16.37
2022-11-26T23:35:24.667Z,17.40
2022-11-26T23:37:54.485Z,19.17
2022-11-26T23:40:25.208Z,14.97
2022-11-26T23:42:55.023Z,17.25
2022-11-26T23:45:24.704Z,16.23
2022-11-26T23:47:54.540Z,14.30
2022-11-26T23:50:24.188Z,16.53
2022-11-26T23:52:54.011Z,17.17
2022-11-26T23:55:23.595Z,15.83
2022-11-26T23:57:54.333Z,16.57
